Time;durP1;ratioP1;P1;durP2;ratioP2;P2;SDS_P1;SDS_P2;PMS_P1;PMS_P2;Temp;Humidity;BMP_temperature;BMP_pressure;BME280_temperature;BME280_humidity;BME280_pressure;Samples;Min_cycle;Max_cycle;Signal;HPM_P1;HPM_P2
2020/12/24 00:00:38;;;;;;;;;;;;;;;-4.70;96.61;101765.30;1829089;78;20463;-33
2020/12/24 00:03:06;;;;;;;;;;;;;;;-4.68;96.66;101770.52;1829479;78;20209;-36
2020/12/24 00:05:34;;;;;;;;;;;;;;;-4.68;96.71;101766.29;1829255;78;20155;-35
2020/12/24 00:08:03;;;;;;;;;;;;;;;-4.66;96.77;101767.24;1829452;78;20354;-35
2020/12/24 00:10:31;;;;;;;;;;;;;;;-4.64;96.78;101766.95;1829562;78;20132;-35
2020/12/24 00:12:59;;;;;;;;;;;;;;;-4.63;96.84;101763.61;1829651;78;20195;-35
2020/12/24 00:15:26;;;;;;;;;;;;;;;-4.60;96.86;101762.92;1829391;78;20230;-33
2020/12/24 00:17:54;;;;;;;;;;;;;;;-4.60;96.89;101765.09;1829398;78;20265;-32
2020/12/24 00:20:22;;;;;;;;;;;;;;;-4.58;96.94;101764.77;1829299;78;20246;-33
2020/12/24 00:22:50;;;;;;;;;;;;;;;-4.57;96.95;101761.42;1829398;78;20147;-35
2020/12/24 00:25:18;;;;;;;;;;;;;;;-4.55;96.93;101761.12;1829300;78;20290;-34
2020/12/24 00:27:46;;;;;;;;;;;;;;;-4.53;96.97;101763.79;1829420;78;20155;-37
2020/12/24 00:30:14;;;;;;;;;;;;;;;-4.53;97.00;101764.64;1829230;78;20162;-35
2020/12/24 00:32:42;;;;;;;;;;;;;;;-4.53;97.00;101762.08;1829354;78;20123;-34
2020/12/24 00:35:09;;;;;;;;;;;;;;;-4.52;97.02;101761.30;1829748;78;20123;-34
2020/12/24 00:37:37;;;;;;;;;;;;;;;-4.51;97.04;101749.00;1829446;78;20238;-35
2020/12/24 00:40:06;;;;;;;;;;;;;;;-4.53;97.04;101741.61;1829533;78;20277;-34
2020/12/24 00:42:34;;;;;;;;;;;;;;;-4.53;97.05;101746.73;1829422;78;20179;-36
2020/12/24 00:45:01;;;;;;;;;;;;;;;-4.53;97.03;101748.44;1829359;78;20273;-34
2020/12/24 00:47:29;;;;;;;;;;;;;;;-4.54;97.05;101744.11;1829615;78;20123;-36
2020/12/24 00:49:59;;;;;;;;;;;;;;;-4.54;97.03;101731.31;1829234;78;20284;-35
2020/12/24 00:52:26;;;;;;;;;;;;;;;-4.55;97.05;101725.70;1829516;78;20131;-34
2020/12/24 00:54:54;;;;;;;;;;;;;;;-4.55;97.08;101718.03;1829378;78;20135;-34
2020/12/24 00:57:22;;;;;;;;;;;;;;;-4.55;97.12;101721.47;1829365;78;20226;-35
2020/12/24 00:59:50;;;;;;;;;;;;;;;-4.55;97.14;101712.52;1829603;78;20135;-35
2020/12/24 01:02:17;;;;;;;;;;;;;;;-4.53;97.15;101717.30;1829362;78;20186;-34
2020/12/24 01:04:45;;;;;;;;;;;;;;;-4.53;97.16;101717.73;1829289;78;20166;-35
2020/12/24 01:07:13;;;;;;;;;;;;;;;-4.55;97.17;101701.39;1829398;78;20282;-35
2020/12/24 01:09:40;;;;;;;;;;;;;;;-4.56;97.20;101706.02;1829478;78;20138;-35
2020/12/24 01:12:08;;;;;;;;;;;;;;;-4.59;97.25;101701.59;1829303;78;20147;-35
2020/12/24 01:14:35;;;;;;;;;;;;;;;-4.59;97.30;101705.42;1829492;78;20273;-36
2020/12/24 01:17:03;;;;;;;;;;;;;;;-4.57;97.35;101708.09;1829462;78;20166;-35
2020/12/24 01:19:31;;;;;;;;;;;;;;;-4.56;97.42;101708.58;1829392;78;20389;-34
2020/12/24 01:21:59;;;;;;;;;;;;;;;-4.55;97.50;101704.84;1829485;78;20238;-35
2020/12/24 01:24:27;;;;;;;;;;;;;;;-4.54;97.52;101700.61;1829487;78;20151;-35
2020/12/24 01:26:54;;;;;;;;;;;;;;;-4.52;97.60;101701.16;1829249;78;20186;-36
2020/12/24 01:29:22;;;;;;;;;;;;;;;-4.51;97.67;101698.22;1829311;78;20261;-36
2020/12/24 01:31:50;;;;;;;;;;;;;;;-4.50;97.73;101700.88;1829429;78;20155;-35
2020/12/24 01:34:18;;;;;;;;;;;;;;;-4.49;97.81;101701.36;1829276;78;20404;-34
2020/12/24 01:36:46;;;;;;;;;;;;;;;-4.46;97.88;101700.64;1829315;78;20254;-34
2020/12/24 01:39:14;;;;;;;;;;;;;;;-4.46;97.95;101697.69;1829183;78;20150;-34
2020/12/24 01:41:42;;;;;;;;;;;;;;;-4.44;98.02;101694.84;1829337;78;20131;-36
2020/12/24 01:44:10;;;;;;;;;;;;;;;-4.43;98.12;101694.05;1829412;78;20198;-35
2020/12/24 01:46:39;;;;;;;;;;;;;;;-4.42;98.18;101694.55;1829210;78;20203;-37
2020/12/24 01:49:09;;;;;;;;;;;;;;;-4.39;98.26;101695.09;1828454;78;20167;-36
2020/12/24 01:51:36;;;;;;;;;;;;;;;-4.35;98.33;101698.34;1829313;78;20123;-34
2020/12/24 01:54:04;;;;;;;;;;;;;;;-4.33;98.41;101695.45;1829297;78;20147;-34
2020/12/24 01:56:32;;;;;;;;;;;;;;;-4.30;98.46;101689.64;1829287;78;20123;-34
2020/12/24 01:59:01;;;;;;;;;;;;;;;-4.27;98.49;101689.45;1829464;78;20524;-34
2020/12/24 02:01:28;;;;;;;;;;;;;;;-4.23;98.54;101693.05;1829332;78;20178;-35
2020/12/24 02:03:56;;;;;;;;;;;;;;;-4.21;98.58;101697.87;1829307;78;20155;-35
2020/12/24 02:06:24;;;;;;;;;;;;;;;-4.18;98.63;101699.31;1829407;78;20162;-35
2020/12/24 02:08:54;;;;;;;;;;;;;;;-4.14;98.70;101698.72;1828855;78;20179;-35
2020/12/24 02:11:22;;;;;;;;;;;;;;;-4.12;98.72;101698.39;1829514;78;20143;-35
2020/12/24 02:13:49;;;;;;;;;;;;;;;-4.12;98.78;101690.70;1829358;78;20226;-34
2020/12/24 02:16:17;;;;;;;;;;;;;;;-4.11;98.84;101698.88;1829284;78;20127;-35
2020/12/24 02:18:45;;;;;;;;;;;;;;;-4.11;98.91;101695.92;1829325;78;20186;-35
2020/12/24 02:21:13;;;;;;;;;;;;;;;-4.11;99.03;101691.20;1829415;78;20278;-33
2020/12/24 02:26:50;;;;;;;;;;;;;;;-4.06;99.36;101689.39;1910795;74;20146;-34
2020/12/24 02:29:19;;;;;;;;;;;;;;;-4.09;99.46;101687.06;1876797;75;20203;-34
2020/12/24 02:31:46;;;;;;;;;;;;;;;-4.07;99.58;101684.20;1868210;77;20228;-35
2020/12/24 02:34:14;;;;;;;;;;;;;;;-4.05;99.70;101683.87;1868100;77;20397;-34
2020/12/24 02:36:42;;;;;;;;;;;;;;;-4.04;99.83;101685.64;1867846;77;20175;-35
2020/12/24 02:39:10;;;;;;;;;;;;;;;-4.03;99.97;101681.01;1867941;77;20231;-36
2020/12/24 02:41:38;;;;;;;;;;;;;;;-4.04;100.00;101683.97;1868004;77;20224;-34
2020/12/24 02:44:06;;;;;;;;;;;;;;;-4.03;100.00;101682.29;1867733;77;20139;-35
2020/12/24 02:46:34;;;;;;;;;;;;;;;-4.03;100.00;101688.30;1868206;77;20251;-34
2020/12/24 02:49:01;;;;;;;;;;;;;;;-3.99;100.00;101689.73;1867739;77;20140;-34
2020/12/24 02:51:29;;;;;;;;;;;;;;;-3.98;100.00;101692.78;1867991;77;20144;-34
2020/12/24 02:53:59;;;;;;;;;;;;;;;-3.98;100.00;101691.11;1867861;77;20152;-35
2020/12/24 02:56:28;;;;;;;;;;;;;;;-3.97;100.00;101689.44;1867847;77;20271;-35
2020/12/24 02:58:56;;;;;;;;;;;;;;;-3.96;100.00;101690.81;1867805;77;20227;-34
2020/12/24 03:01:24;;;;;;;;;;;;;;;-3.97;100.00;101690.32;1867962;77;20159;-34
2020/12/24 03:03:51;;;;;;;;;;;;;;;-3.96;100.00;101680.96;1867799;77;20255;-36
2020/12/24 03:06:19;;;;;;;;;;;;;;;-3.97;100.00;101678.80;1867894;77;20278;-34
2020/12/24 03:08:48;;;;;;;;;;;;;;;-3.95;100.00;101686.18;1867877;77;20235;-34
2020/12/24 03:11:16;;;;;;;;;;;;;;;-3.96;100.00;101678.00;1868022;77;20120;-33
2020/12/24 03:13:43;;;;;;;;;;;;;;;-3.96;100.00;101678.40;1868133;77;20271;-36
2020/12/24 03:16:11;;;;;;;;;;;;;;;-3.95;100.00;101682.34;1867984;77;20129;-35
2020/12/24 03:18:39;;;;;;;;;;;;;;;-3.95;100.00;101680.17;1868326;77;20148;-36
2020/12/24 03:21:07;;;;;;;;;;;;;;;-3.94;100.00;101683.22;1867915;77;20195;-35
2020/12/24 03:23:35;;;;;;;;;;;;;;;-3.94;100.00;101681.55;1868152;77;20152;-34
2020/12/24 03:26:03;;;;;;;;;;;;;;;-3.93;100.00;101681.12;1867907;77;20258;-35
2020/12/24 03:28:31;;;;;;;;;;;;;;;-3.92;100.00;101684.17;1867883;77;20239;-34
2020/12/24 03:30:58;;;;;;;;;;;;;;;-3.91;100.00;101690.67;1867870;77;20290;-35
2020/12/24 03:33:26;;;;;;;;;;;;;;;-3.88;100.00;101693.42;1868229;77;20219;-35
2020/12/24 03:35:55;;;;;;;;;;;;;;;-3.88;100.00;101692.14;1868056;77;20258;-41
2020/12/24 03:38:22;;;;;;;;;;;;;;;-3.86;100.00;101688.36;1867286;77;20227;-38
2020/12/24 03:40:50;;;;;;;;;;;;;;;-3.85;100.00;101689.73;1867197;77;20180;-35
2020/12/24 03:43:17;;;;;;;;;;;;;;;-3.82;100.00;101695.44;1880574;75;20178;-36
2020/12/24 03:45:45;;;;;;;;;;;;;;;-3.82;100.00;101692.48;1867168;77;20264;-35
2020/12/24 03:48:13;;;;;;;;;;;;;;;-3.81;100.00;101687.85;1867219;77;20174;-35
2020/12/24 03:50:41;;;;;;;;;;;;;;;-3.82;100.00;101687.36;1867360;77;20181;-35
2020/12/24 03:53:09;;;;;;;;;;;;;;;-3.81;100.00;101695.94;1867310;77;20134;-35
2020/12/24 03:55:37;;;;;;;;;;;;;;;-3.81;100.00;101688.25;1867383;77;20122;-36
2020/12/24 03:58:04;;;;;;;;;;;;;;;-3.80;100.00;101690.87;1867301;77;20134;-35
2020/12/24 04:00:32;;;;;;;;;;;;;;;-3.80;100.00;101693.83;1867221;77;20131;-38
2020/12/24 04:03:00;;;;;;;;;;;;;;;-3.78;100.00;101691.84;1867341;77;20249;-36
2020/12/24 04:05:27;;;;;;;;;;;;;;;-3.77;100.00;101690.17;1867012;77;20162;-32
2020/12/24 04:07:55;;;;;;;;;;;;;;;-3.76;100.00;101691.55;1867367;77;20192;-36
2020/12/24 04:10:22;;;;;;;;;;;;;;;-3.73;100.00;101688.26;1867392;77;20269;-35
2020/12/24 04:12:50;;;;;;;;;;;;;;;-3.72;100.00;101697.31;1867134;77;20218;-34
2020/12/24 04:15:18;;;;;;;;;;;;;;;-3.69;100.00;101694.06;1867211;77;20237;-34
2020/12/24 04:17:46;;;;;;;;;;;;;;;-3.68;100.00;101694.16;1867074;77;20306;-36
2020/12/24 04:20:15;;;;;;;;;;;;;;;-3.66;100.00;101698.94;1867319;77;20280;-34
2020/12/24 04:22:43;;;;;;;;;;;;;;;-3.63;100.00;101707.22;1867232;77;20257;-36
2020/12/24 04:25:12;;;;;;;;;;;;;;;-3.59;100.00;101701.84;1868263;75;20375;-34
2020/12/24 04:27:40;;;;;;;;;;;;;;;-3.57;100.00;101699.86;1867409;77;20136;-37
2020/12/24 04:30:07;;;;;;;;;;;;;;;-3.55;100.00;101697.39;1867115;77;20229;-36
2020/12/24 04:32:35;;;;;;;;;;;;;;;-3.53;100.00;101691.94;1866928;77;20138;-36
2020/12/24 04:35:02;;;;;;;;;;;;;;;-3.51;100.00;101687.39;1852323;77;20225;-35
2020/12/24 04:37:30;;;;;;;;;;;;;;;-3.48;100.00;101683.73;1836745;77;20132;-35
2020/12/24 04:39:58;;;;;;;;;;;;;;;-3.45;100.00;101682.60;1832744;78;20422;-35
2020/12/24 04:42:26;;;;;;;;;;;;;;;-3.41;100.00;101687.08;1832343;78;20200;-34
2020/12/24 04:44:53;;;;;;;;;;;;;;;-3.38;100.00;101683.42;1838868;77;20169;-34
2020/12/24 04:47:21;;;;;;;;;;;;;;;-3.33;100.00;101684.95;1795389;78;20151;-34
2020/12/24 04:49:49;;;;;;;;;;;;;;;-3.29;100.00;101685.62;1844991;77;20228;-35
2020/12/24 04:52:17;;;;;;;;;;;;;;;-3.24;100.00;101678.66;1841169;77;20123;-35
2020/12/24 04:54:45;;;;;;;;;;;;;;;-3.19;100.00;101683.13;1829213;78;20148;-36
2020/12/24 04:57:13;;;;;;;;;;;;;;;-3.17;100.00;101683.72;1829459;78;20288;-36
2020/12/24 04:59:41;;;;;;;;;;;;;;;-3.15;100.00;101680.81;1832057;77;20228;-36
2020/12/24 05:02:09;;;;;;;;;;;;;;;-3.12;100.00;101683.55;1830717;77;20185;-35
2020/12/24 05:04:37;;;;;;;;;;;;;;;-3.10;100.00;101682.36;1831457;77;20188;-35
2020/12/24 05:07:07;;;;;;;;;;;;;;;-3.09;100.00;101681.56;1843098;77;20167;-37
2020/12/24 05:09:35;;;;;;;;;;;;;;;-3.07;100.00;101686.36;1830184;77;20448;-33
2020/12/24 05:12:03;;;;;;;;;;;;;;;-3.08;100.00;101681.63;1836636;77;20193;-36
2020/12/24 05:14:31;;;;;;;;;;;;;;;-3.07;100.00;101685.07;1835485;77;20301;-36
2020/12/24 05:17:03;;;;;;;;;;;;;;;-3.06;100.00;101679.15;1792100;79;20230;-36
2020/12/24 05:19:47;;;;;;;;;;;;;;;-3.06;100.00;101685.16;1800046;79;20186;-35
2020/12/24 05:22:20;;;;;;;;;;;;;;;-3.06;100.00;101674.91;1804380;78;20256;-35
2020/12/24 05:24:48;;;;;;;;;;;;;;;-3.06;100.00;101689.02;1813885;79;20186;-37
2020/12/24 05:27:20;;;;;;;;;;;;;;;-3.06;100.00;101686.45;1817044;77;20272;-36
2020/12/24 05:29:49;;;;;;;;;;;;;;;-3.06;100.00;101690.30;1815277;79;20197;-36
2020/12/24 05:32:23;;;;;;;;;;;;;;;-3.05;100.00;101697.19;1808716;78;20218;-36
2020/12/24 05:34:50;;;;;;;;;;;;;;;-3.03;100.00;101693.44;1798956;78;20180;-36
2020/12/24 05:37:20;;;;;;;;;;;;;;;-3.01;100.00;101696.55;1755960;78;20246;-36
2020/12/24 05:39:48;;;;;;;;;;;;;;;-3.00;100.00;101698.31;1810745;78;20201;-36
2020/12/24 05:42:17;;;;;;;;;;;;;;;-3.00;100.00;101700.88;1805536;78;20214;-34
2020/12/24 05:44:45;;;;;;;;;;;;;;;-2.99;100.00;101694.06;1815258;78;20191;-36
2020/12/24 05:47:13;;;;;;;;;;;;;;;-2.99;100.00;101701.37;1806061;78;20467;-35
2020/12/24 05:49:42;;;;;;;;;;;;;;;-2.98;100.00;101699.29;1807255;78;20182;-41
2020/12/24 05:52:17;;;;;;;;;;;;;;;-2.97;100.00;101702.73;1766604;78;20244;-35
2020/12/24 05:55:04;;;;;;;;;;;;;;;-2.94;100.00;101710.58;1766951;78;20131;-35
2020/12/24 05:57:42;;;;;;;;;;;;;;;-2.93;100.00;101711.06;1773752;78;20525;-35
2020/12/24 06:00:10;;;;;;;;;;;;;;;-2.92;100.00;101706.03;1786277;78;20456;-37
2020/12/24 06:02:38;;;;;;;;;;;;;;;-2.90;100.00;101707.40;1809249;78;20269;-38
2020/12/24 06:05:10;;;;;;;;;;;;;;;-2.90;100.00;101710.85;1806686;78;20520;-36
2020/12/24 06:07:46;;;;;;;;;;;;;;;-2.89;100.00;101711.30;1764103;78;20185;-36
2020/12/24 06:10:18;;;;;;;;;;;;;;;-2.86;100.00;101711.48;1804984;78;20183;-36
2020/12/24 06:12:51;;;;;;;;;;;;;;;-2.85;100.00;101709.41;1770885;80;20157;-38
2020/12/24 06:15:20;;;;;;;;;;;;;;;-2.83;100.00;101716.80;1733200;78;20312;-38
2020/12/24 06:17:48;;;;;;;;;;;;;;;-2.81;100.00;101717.73;1775133;78;20202;-37
2020/12/24 06:20:18;;;;;;;;;;;;;;;-2.79;100.00;101711.80;1805993;78;20392;-37
2020/12/24 06:22:46;;;;;;;;;;;;;;;-2.76;100.00;101709.42;1810003;78;20184;-38
2020/12/24 06:26:55;;;;;;;;;;;;;;;-2.67;100.00;101712.05;1898250;74;20195;-35
2020/12/24 06:29:24;;;;;;;;;;;;;;;-2.70;100.00;101713.19;1864405;75;21488;-39
2020/12/24 06:31:53;;;;;;;;;;;;;;;-2.67;100.00;101712.45;1868577;75;20328;-34
2020/12/24 06:34:23;;;;;;;;;;;;;;;-2.64;100.00;101712.63;1871240;75;20374;-36
2020/12/24 06:36:52;;;;;;;;;;;;;;;-2.61;100.00;101706.35;1869346;75;20180;-37
2020/12/24 06:39:40;;;;;;;;;;;;;;;-2.58;100.00;101707.81;1872855;75;20191;-40
2020/12/24 06:42:14;;;;;;;;;;;;;;;-2.55;100.00;101709.23;1872304;75;20150;-36
2020/12/24 06:44:46;;;;;;;;;;;;;;;-2.52;100.00;101702.99;1854287;75;20264;-40
2020/12/24 06:47:15;;;;;;;;;;;;;;;-2.49;100.00;101709.55;1871600;75;20197;-36
2020/12/24 06:49:44;;;;;;;;;;;;;;;-2.44;100.00;101711.58;1868392;75;20193;-38
2020/12/24 06:52:11;;;;;;;;;;;;;;;-2.41;100.00;101710.44;1874065;75;20176;-35
2020/12/24 06:54:39;;;;;;;;;;;;;;;-2.35;100.00;101712.83;1873931;75;20307;-39
2020/12/24 06:57:24;;;;;;;;;;;;;;;-2.29;100.00;101718.28;1868702;75;20311;-39
2020/12/24 07:00:18;;;;;;;;;;;;;;;-2.24;100.00;101715.57;1870639;75;20211;-37
2020/12/24 07:02:49;;;;;;;;;;;;;;;-2.19;99.99;101721.81;1847442;75;20136;-38
2020/12/24 07:05:40;;;;;;;;;;;;;;;-2.15;99.18;101717.30;1830056;77;20816;-37
2020/12/24 07:08:09;;;;;;;;;;;;;;;-2.11;98.52;101717.95;1819263;78;20296;-35
2020/12/24 07:10:45;;;;;;;;;;;;;;;-2.06;97.83;101717.78;1760545;78;20225;-39
2020/12/24 07:13:39;;;;;;;;;;;;;;;-2.04;97.04;101724.77;1812262;78;20310;-39
2020/12/24 07:16:08;;;;;;;;;;;;;;;-2.01;96.15;101723.62;1818213;78;20125;-38
2020/12/24 07:18:39;;;;;;;;;;;;;;;-1.97;95.26;101729.81;1833055;77;20156;-37
2020/12/24 07:21:10;;;;;;;;;;;;;;;-1.94;94.67;101733.80;1828285;77;20198;-37
2020/12/24 07:23:39;;;;;;;;;;;;;;;-1.90;94.09;101732.28;1836973;77;20179;-38
2020/12/24 07:26:10;;;;;;;;;;;;;;;-1.85;93.59;101729.53;1835023;77;20283;-38
2020/12/24 07:28:40;;;;;;;;;;;;;;;-1.81;92.90;101721.16;1818075;78;20272;-36
2020/12/24 07:31:08;;;;;;;;;;;;;;;-1.75;92.31;101735.59;1815375;77;20391;-37
2020/12/24 07:33:45;;;;;;;;;;;;;;;-1.72;91.60;101739.61;1816249;77;20183;-37
2020/12/24 07:36:12;;;;;;;;;;;;;;;-1.69;90.94;101742.31;1823816;78;20164;-36
2020/12/24 07:38:40;;;;;;;;;;;;;;;-1.64;90.43;101743.02;1805478;78;20325;-38
2020/12/24 07:41:16;;;;;;;;;;;;;;;-1.60;89.53;101740.21;1796152;78;20230;-37
2020/12/24 07:43:44;;;;;;;;;;;;;;;-1.55;88.78;101732.70;1792639;78;20539;-38
2020/12/24 07:46:12;;;;;;;;;;;;;;;-1.53;87.87;101730.70;1806003;78;20182;-38
2020/12/24 07:48:40;;;;;;;;;;;;;;;-1.50;87.25;101738.55;1808568;78;20230;-38
2020/12/24 07:51:08;;;;;;;;;;;;;;;-1.45;86.63;101742.65;1813612;78;20224;-39
2020/12/24 07:53:36;;;;;;;;;;;;;;;-1.41;86.22;101731.29;1805643;78;20337;-39
2020/12/24 07:56:05;;;;;;;;;;;;;;;-1.39;85.53;101737.40;1809726;78;20289;-40
2020/12/24 07:58:34;;;;;;;;;;;;;;;-1.34;85.15;101742.35;1808646;78;20174;-40
2020/12/24 08:01:04;;;;;;;;;;;;;;;-1.28;84.78;101738.78;1808750;78;20207;-42
2020/12/24 08:03:32;;;;;;;;;;;;;;;-1.18;84.65;101745.66;1811102;78;20421;-41
2020/12/24 08:06:05;;;;;;;;;;;;;;;-1.08;84.21;101740.12;1811281;78;20186;-41
2020/12/24 08:08:41;;;;;;;;;;;;;;;-1.00;83.21;101740.08;1807653;78;20564;-42
2020/12/24 08:11:10;;;;;;;;;;;;;;;-0.92;82.62;101744.75;1782156;78;20237;-41
2020/12/24 08:13:38;;;;;;;;;;;;;;;-0.80;82.44;101744.46;1827577;77;20451;-42
2020/12/24 08:16:13;;;;;;;;;;;;;;;-0.62;81.93;101744.00;1831245;77;20164;-41
2020/12/24 08:18:45;;;;;;;;;;;;;;;-0.47;81.26;101731.81;1825032;77;20519;-42
2020/12/24 08:21:22;;;;;;;;;;;;;;;-0.31;80.54;101732.47;1826166;77;20283;-42
2020/12/24 08:23:52;;;;;;;;;;;;;;;-0.24;80.20;101743.11;1829639;77;20171;-42
2020/12/24 08:26:21;;;;;;;;;;;;;;;-0.13;78.72;101729.42;1826388;77;20297;-38
2020/12/24 08:28:54;;;;;;;;;;;;;;;-0.17;76.86;101734.83;1816779;78;20130;-43
2020/12/24 08:31:25;;;;;;;;;;;;;;;-0.24;75.79;101732.80;1786468;77;20256;-42
2020/12/24 08:33:58;;;;;;;;;;;;;;;-0.29;75.05;101726.98;1816040;77;20180;-41
2020/12/24 08:36:31;;;;;;;;;;;;;;;-0.31;74.61;101725.63;1796281;78;20246;-42
2020/12/24 08:39:07;;;;;;;;;;;;;;;-0.29;74.45;101724.41;1827753;77;20392;-43
2020/12/24 08:41:43;;;;;;;;;;;;;;;-0.28;74.11;101730.92;1779094;77;20158;-42
2020/12/24 08:44:20;;;;;;;;;;;;;;;-0.30;73.97;101721.35;1791347;77;20206;-40
2020/12/24 08:47:05;;;;;;;;;;;;;;;-0.28;73.69;101719.33;1827492;77;20139;-42
2020/12/24 08:49:44;;;;;;;;;;;;;;;-0.28;73.46;101704.27;1804712;77;20196;-42
2020/12/24 08:52:22;;;;;;;;;;;;;;;-0.28;73.09;101718.04;1829919;77;20141;-42
2020/12/24 08:55:01;;;;;;;;;;;;;;;-0.27;73.17;101717.23;1767272;78;20408;-42
2020/12/24 08:57:29;;;;;;;;;;;;;;;-0.21;72.75;101716.61;1836161;77;20212;-39
2020/12/24 09:00:00;;;;;;;;;;;;;;;-0.26;73.10;101708.66;1817426;78;20200;-42
2020/12/24 09:02:30;;;;;;;;;;;;;;;-0.26;73.44;101706.08;1810500;78;20225;-40
2020/12/24 09:05:00;;;;;;;;;;;;;;;-0.15;73.51;101707.44;1798382;78;20192;-42
2020/12/24 09:07:33;;;;;;;;;;;;;;;-0.04;73.25;101707.48;1822658;78;20979;-40
2020/12/24 09:10:03;;;;;;;;;;;;;;;0.04;73.16;101709.09;1797086;79;20301;-41
2020/12/24 09:12:32;;;;;;;;;;;;;;;0.17;73.30;101701.45;1804137;78;20183;-41
2020/12/24 09:15:03;;;;;;;;;;;;;;;0.27;72.85;101687.70;1830534;77;20141;-44
2020/12/24 09:17:31;;;;;;;;;;;;;;;0.28;71.55;101680.44;1833697;77;20188;-50
2020/12/24 09:20:11;;;;;;;;;;;;;;;0.19;71.02;101676.22;1832617;77;20254;-42
2020/12/24 09:22:53;;;;;;;;;;;;;;;0.11;70.97;101669.87;1828961;77;20194;-42
2020/12/24 09:25:42;;;;;;;;;;;;;;;0.11;70.98;101679.30;1834295;76;20165;-41
2020/12/24 09:28:24;;;;;;;;;;;;;;;0.14;71.20;101679.00;1811960;77;20200;-41
2020/12/24 09:30:58;;;;;;;;;;;;;;;0.32;71.36;101663.41;1807623;78;20310;-42
2020/12/24 09:33:26;;;;;;;;;;;;;;;0.44;70.31;101669.05;1821137;78;20183;-41
2020/12/24 09:35:55;;;;;;;;;;;;;;;0.52;70.02;101671.94;1788372;78;20205;-42
2020/12/24 09:38:23;;;;;;;;;;;;;;;0.60;69.62;101675.67;1821768;78;20182;-38
2020/12/24 09:40:53;;;;;;;;;;;;;;;0.52;68.92;101679.27;1811412;78;20555;-41
2020/12/24 09:43:24;;;;;;;;;;;;;;;0.42;68.90;101674.95;1813972;78;20194;-39
2020/12/24 09:45:56;;;;;;;;;;;;;;;0.48;68.98;101671.33;1782470;78;20226;-42
2020/12/24 09:48:24;;;;;;;;;;;;;;;0.46;67.66;101668.68;1813489;78;20225;-42
2020/12/24 09:50:55;;;;;;;;;;;;;;;0.36;67.46;101660.13;1772574;78;20212;-41
2020/12/24 09:53:24;;;;;;;;;;;;;;;0.27;67.62;101664.49;1815882;78;20195;-41
2020/12/24 09:55:52;;;;;;;;;;;;;;;0.18;67.91;101657.70;1815488;78;20192;-43
2020/12/24 09:58:20;;;;;;;;;;;;;;;0.10;67.60;101642.31;1816948;78;20203;-41
2020/12/24 10:00:50;;;;;;;;;;;;;;;-0.02;67.74;101646.57;1816707;78;20236;-40
2020/12/24 10:03:22;;;;;;;;;;;;;;;-0.09;68.23;101646.25;1808718;78;20200;-41
2020/12/24 10:05:49;;;;;;;;;;;;;;;-0.09;68.52;101644.55;1810893;78;20188;-41
2020/12/24 10:08:17;;;;;;;;;;;;;;;-0.09;68.55;101637.23;1819179;78;20198;-40
2020/12/24 10:10:46;;;;;;;;;;;;;;;-0.08;68.69;101636.42;1817753;78;20212;-40
2020/12/24 10:13:13;;;;;;;;;;;;;;;-0.02;68.66;101631.52;1811990;78;20212;-42
2020/12/24 10:15:41;;;;;;;;;;;;;;;0.06;68.52;101638.27;1813217;78;20196;-37
2020/12/24 10:18:09;;;;;;;;;;;;;;;0.16;68.87;101628.79;1811806;78;20191;-40
2020/12/24 10:20:36;;;;;;;;;;;;;;;0.23;68.80;101635.95;1812976;78;20202;-42
2020/12/24 10:26:56;;;;;;;;;;;;;;;0.23;68.97;101635.95;1900038;74;20184;-40
2020/12/24 10:29:33;;;;;;;;;;;;;;;0.19;69.33;101632.39;1818058;75;20178;-40
2020/12/24 10:32:14;;;;;;;;;;;;;;;0.34;69.17;101639.83;1832281;75;20179;-43
2020/12/24 10:34:43;;;;;;;;;;;;;;;0.48;68.80;101623.61;1868386;75;20187;-39
2020/12/24 10:37:11;;;;;;;;;;;;;;;0.55;67.86;101641.08;1879732;75;20286;-40
2020/12/24 10:39:38;;;;;;;;;;;;;;;0.61;67.76;101633.58;1835581;77;20283;-40
2020/12/24 10:42:07;;;;;;;;;;;;;;;0.66;67.61;101637.20;1801285;78;20167;-39
2020/12/24 10:44:35;;;;;;;;;;;;;;;0.64;67.01;101627.26;1828689;77;20289;-40
2020/12/24 10:47:04;;;;;;;;;;;;;;;0.51;66.23;101636.23;1812948;78;20219;-38
2020/12/24 10:49:41;;;;;;;;;;;;;;;0.46;66.67;101635.59;1771649;78;20523;-39
2020/12/24 10:52:30;;;;;;;;;;;;;;;0.49;66.58;101636.98;1772056;78;20200;-40
2020/12/24 10:55:01;;;;;;;;;;;;;;;0.40;66.11;101635.80;1776058;77;20244;-41
2020/12/24 10:57:32;;;;;;;;;;;;;;;0.25;66.00;101635.20;1812056;78;20190;-39
2020/12/24 11:00:01;;;;;;;;;;;;;;;0.13;66.16;101633.41;1773051;78;20583;-41
2020/12/24 11:02:30;;;;;;;;;;;;;;;0.03;66.02;101635.15;1785942;77;20217;-42
2020/12/24 11:05:00;;;;;;;;;;;;;;;-0.02;65.92;101637.95;1787760;77;20483;-41
2020/12/24 11:07:32;;;;;;;;;;;;;;;-0.04;66.14;101637.89;1812181;78;20207;-42
2020/12/24 11:10:02;;;;;;;;;;;;;;;-0.01;66.39;101635.86;1814019;78;20197;-41
2020/12/24 11:12:33;;;;;;;;;;;;;;;0.03;66.19;101640.30;1820328;77;20204;-42
2020/12/24 11:15:01;;;;;;;;;;;;;;;0.09;66.55;101641.84;1818836;77;20276;-40
2020/12/24 11:17:30;;;;;;;;;;;;;;;0.20;66.34;101637.11;1817556;78;20474;-42
2020/12/24 11:20:00;;;;;;;;;;;;;;;0.22;65.90;101635.48;1818454;78;20192;-41
2020/12/24 11:22:28;;;;;;;;;;;;;;;0.16;65.93;101632.25;1832564;77;20202;-40
2020/12/24 11:24:57;;;;;;;;;;;;;;;0.08;66.25;101637.50;1833013;77;20319;-45
2020/12/24 11:27:26;;;;;;;;;;;;;;;0.07;66.51;101631.86;1813626;77;20565;-43
2020/12/24 11:29:54;;;;;;;;;;;;;;;0.14;66.66;101630.41;1835618;77;20208;-41
2020/12/24 11:32:25;;;;;;;;;;;;;;;0.14;66.22;101631.70;1802903;77;20207;-41
2020/12/24 11:34:53;;;;;;;;;;;;;;;0.16;66.30;101631.37;1835311;77;20215;-39
2020/12/24 11:37:20;;;;;;;;;;;;;;;0.10;65.83;101632.00;1836783;77;20200;-39
2020/12/24 11:39:50;;;;;;;;;;;;;;;-0.05;66.01;101624.52;1835474;76;20351;-40
2020/12/24 11:42:19;;;;;;;;;;;;;;;-0.11;66.47;101606.23;1735638;78;20194;-42
2020/12/24 11:44:47;;;;;;;;;;;;;;;-0.11;66.81;101607.93;1810797;77;20214;-41
2020/12/24 11:47:15;;;;;;;;;;;;;;;-0.05;67.03;101615.91;1823153;77;20297;-42
2020/12/24 11:49:43;;;;;;;;;;;;;;;-0.07;66.59;101611.12;1816010;77;20159;-39
2020/12/24 11:52:11;;;;;;;;;;;;;;;-0.20;66.79;101616.59;1817768;78;20296;-39
2020/12/24 11:54:39;;;;;;;;;;;;;;;-0.30;67.19;101611.45;1796364;78;20274;-39
2020/12/24 11:57:07;;;;;;;;;;;;;;;-0.42;67.40;101607.96;1798781;78;20447;-41
2020/12/24 11:59:36;;;;;;;;;;;;;;;-0.49;67.73;101602.08;1822683;78;20285;-40
2020/12/24 12:02:45;;;;;;;;;;;;;;;-0.45;68.17;101606.53;1793386;78;20212;-41
2020/12/24 12:05:29;;;;;;;;;;;;;;;-0.25;68.51;101603.90;1779982;78;20297;-41
2020/12/24 12:08:20;;;;;;;;;;;;;;;-0.10;67.60;101610.58;1786900;78;20426;-39
2020/12/24 12:11:41;;;;;;;;;;;;;;;-0.20;67.24;101609.74;1814348;78;20390;-39
2020/12/24 12:14:10;;;;;;;;;;;;;;;-0.43;67.16;101615.61;1806985;78;20189;-42
2020/12/24 12:16:38;;;;;;;;;;;;;;;-0.58;67.49;101614.55;1807085;78;20249;-40
2020/12/24 12:19:06;;;;;;;;;;;;;;;-0.70;68.02;101619.17;1794214;78;20182;-41
2020/12/24 12:21:37;;;;;;;;;;;;;;;-0.77;68.37;101622.70;1836814;77;20220;-40
2020/12/24 12:24:04;;;;;;;;;;;;;;;-0.85;68.75;101622.36;1832396;77;20301;-41
2020/12/24 12:26:32;;;;;;;;;;;;;;;-0.87;69.25;101622.72;1838497;77;20158;-38
2020/12/24 12:29:01;;;;;;;;;;;;;;;-0.87;69.20;101618.45;1834011;77;20348;-40
2020/12/24 12:31:28;;;;;;;;;;;;;;;-0.95;69.02;101622.38;1834996;77;20200;-36
2020/12/24 12:33:59;;;;;;;;;;;;;;;-1.04;69.02;101620.67;1797152;79;20319;-39
2020/12/24 12:36:28;;;;;;;;;;;;;;;-1.13;68.97;101614.25;1814091;78;20164;-41
2020/12/24 12:38:55;;;;;;;;;;;;;;;-1.26;68.71;101616.27;1813186;78;20198;-40
2020/12/24 12:41:23;;;;;;;;;;;;;;;-1.36;68.60;101610.62;1820567;78;20726;-39
2020/12/24 12:43:53;;;;;;;;;;;;;;;-1.47;68.44;101614.00;1814935;78;20135;-40
2020/12/24 12:46:29;;;;;;;;;;;;;;;-1.55;68.25;101613.16;1814596;78;20201;-40
2020/12/24 12:48:57;;;;;;;;;;;;;;;-1.63;68.20;101619.22;1814427;78;20211;-46
2020/12/24 12:51:25;;;;;;;;;;;;;;;-1.72;67.96;101618.41;1808439;78;20300;-39
2020/12/24 12:53:53;;;;;;;;;;;;;;;-1.77;68.01;101615.99;1822045;78;20266;-40
2020/12/24 12:56:22;;;;;;;;;;;;;;;-1.85;67.73;101619.91;1824966;78;20210;-42
2020/12/24 12:58:51;;;;;;;;;;;;;;;-1.95;67.43;101609.98;1816035;78;20190;-41